createdAt,value
2018-11-11T00:01:23.015Z,100033.52
2018-11-11T00:03:51.440Z,100041.47
2018-11-11T00:06:19.583Z,100030.05
2018-11-11T00:08:47.718Z,100023.08
2018-11-11T00:11:15.882Z,100028.04
2018-11-11T00:13:44.023Z,100027.37
2018-11-11T00:16:12.206Z,100027.67
2018-11-11T00:18:40.848Z,100011.44
2018-11-11T00:21:08.990Z,100016.40
2018-11-11T00:23:37.143Z,100015.91
2018-11-11T00:26:05.535Z,100017.73
2018-11-11T00:28:33.792Z,100016.09
2018-11-11T00:31:01.993Z,100014.09
2018-11-11T00:33:30.145Z,100017.73
2018-11-11T00:35:58.281Z,100021.05
2018-11-11T00:38:26.454Z,100022.72
2018-11-11T00:40:54.972Z,100017.08
2018-11-11T00:43:23.145Z,100022.72
2018-11-11T00:45:51.291Z,100035.97
2018-11-11T00:48:19.471Z,100037.94
2018-11-11T01:10:48.851Z,100067.87
2018-11-11T01:13:17.039Z,100071.36
2018-11-11T01:15:45.279Z,100066.06
2018-11-11T01:18:13.434Z,100057.96
2018-11-11T01:20:41.603Z,100060.77
2018-11-11T01:23:09.792Z,100061.41
2018-11-11T01:25:37.960Z,100073.83
2018-11-11T01:28:06.141Z,100072.66
2018-11-11T01:30:34.287Z,100070.98
2018-11-11T01:33:02.491Z,100062.36
2018-11-11T01:35:30.683Z,100051.92
2018-11-11T01:37:58.800Z,100050.44
2018-11-11T01:40:26.927Z,100049.12
2018-11-11T01:42:55.079Z,100043.48
2018-11-11T01:45:23.311Z,100058.20
2018-11-11T01:47:51.452Z,100051.58
2018-11-11T01:50:19.590Z,100041.81
2018-11-11T01:52:47.750Z,100044.47
2018-11-11T01:55:15.945Z,100055.06
2018-11-11T01:57:44.137Z,100055.55
2018-11-11T02:00:16.367Z,100055.55
2018-11-11T02:02:45.259Z,100056.38
2018-11-11T02:05:13.954Z,100062.33
2018-11-11T02:07:43.142Z,100060.02
2018-11-11T02:10:11.643Z,100053.06
2018-11-11T02:12:41.451Z,100051.23
2018-11-11T02:15:10.944Z,100047.42
2018-11-11T02:17:39.105Z,100042.47
2018-11-11T02:20:09.483Z,100041.97
2018-11-11T02:22:37.671Z,100056.88
2018-11-11T02:25:06.658Z,100053.40
2018-11-11T02:27:34.826Z,100051.58
2018-11-11T02:30:02.966Z,100062.33
2018-11-11T02:32:31.153Z,100066.64
2018-11-11T02:34:59.348Z,100059.68
2018-11-11T02:37:27.567Z,100059.68
2018-11-11T02:39:55.656Z,100060.17
2018-11-11T02:42:23.835Z,100062.82
2018-11-11T02:44:52.014Z,100056.05
2018-11-11T02:47:20.171Z,100048.09
2018-11-11T02:49:48.337Z,100048.09
2018-11-11T02:52:16.487Z,100043.78
2018-11-11T02:54:44.644Z,100049.77
2018-11-11T02:57:12.835Z,100052.07
2018-11-11T02:59:41.043Z,100054.72
2018-11-11T03:02:09.202Z,100048.09
2018-11-11T03:04:37.388Z,100046.77
2018-11-11T03:07:05.729Z,100049.42
2018-11-11T03:09:33.952Z,100053.09
2018-11-11T03:12:02.143Z,100044.31
2018-11-11T03:14:30.316Z,100040.49
2018-11-11T03:16:58.487Z,100041.17
2018-11-11T03:19:26.666Z,100044.31
2018-11-11T03:21:54.850Z,100039.84
2018-11-11T03:24:23.078Z,100038.03
2018-11-11T03:26:51.224Z,100042.84
2018-11-11T03:29:19.403Z,100044.80
2018-11-11T03:31:47.585Z,100041.82
2018-11-11T03:34:15.731Z,100039.17
2018-11-11T03:36:43.902Z,100047.45
2018-11-11T03:39:12.049Z,100037.53
2018-11-11T03:41:40.495Z,100028.91
2018-11-11T03:44:08.704Z,100032.88
2018-11-11T03:46:36.888Z,100031.87
2018-11-11T03:49:05.171Z,100033.50
2018-11-11T03:51:33.351Z,100033.13
2018-11-11T03:54:01.636Z,100043.04
2018-11-11T03:56:29.812Z,100040.05
2018-11-11T03:58:57.965Z,100045.50
2018-11-11T04:01:26.111Z,100038.05
2018-11-11T04:03:54.299Z,100042.02
2018-11-11T04:06:22.600Z,100044.02
2018-11-11T04:08:50.839Z,100053.30
2018-11-11T04:11:18.946Z,100039.90
2018-11-11T04:13:47.087Z,100033.77
2018-11-11T04:16:15.301Z,100037.25
2018-11-11T04:18:43.479Z,100034.27
2018-11-11T04:21:11.718Z,100047.16
2018-11-11T04:23:39.968Z,100050.30
2018-11-11T04:26:08.103Z,100057.08
2018-11-11T04:28:36.283Z,100060.89
2018-11-11T04:31:04.484Z,100056.92
2018-11-11T04:33:32.679Z,100056.77
2018-11-11T04:36:00.962Z,100054.31
2018-11-11T04:38:29.194Z,100052.61
2018-11-11T04:40:57.379Z,100050.68
2018-11-11T04:43:25.631Z,100047.69
2018-11-11T04:45:53.824Z,100063.42
2018-11-11T04:48:21.994Z,100058.97
2018-11-11T04:50:50.163Z,100062.94
2018-11-11T04:53:18.364Z,100072.20
2018-11-11T04:55:46.634Z,100073.53
2018-11-11T04:58:14.879Z,100062.94
2018-11-11T05:00:43.038Z,100071.03
2018-11-11T05:03:11.184Z,100068.39
2018-11-11T05:05:42.367Z,100061.27
2018-11-11T05:08:10.535Z,100069.22
2018-11-11T05:10:38.688Z,100073.04
2018-11-11T05:13:06.936Z,100074.85
2018-11-11T05:15:35.102Z,100074.21
2018-11-11T05:18:03.239Z,100068.91
2018-11-11T05:20:31.391Z,100063.95
2018-11-11T05:22:59.563Z,100062.63
2018-11-11T05:25:27.799Z,100060.97
2018-11-11T05:27:55.984Z,100060.14
2018-11-11T05:30:24.144Z,100069.41
2018-11-11T05:32:52.330Z,100059.30
2018-11-11T05:35:20.509Z,100057.14
2018-11-11T05:37:48.675Z,100061.95
2018-11-11T05:40:16.827Z,100068.23
2018-11-11T05:42:44.966Z,100072.20
2018-11-11T05:45:14.499Z,100070.88
2018-11-11T05:47:43.061Z,100071.87
2018-11-11T05:50:17.703Z,100070.88
2018-11-11T05:52:46.805Z,100080.16
2018-11-11T05:55:15.013Z,100087.45
2018-11-11T05:57:43.260Z,100090.94
2018-11-11T06:00:13.092Z,100082.84
2018-11-11T06:02:41.267Z,100080.68
2018-11-11T06:05:11.152Z,100082.84
2018-11-11T06:07:39.306Z,100083.33
2018-11-11T06:10:09.635Z,100080.19
2018-11-11T06:12:37.815Z,100085.48
2018-11-11T06:15:07.404Z,100081.02
2018-11-11T06:17:35.879Z,100080.53
2018-11-11T06:20:04.383Z,100074.73
2018-11-11T06:22:32.559Z,100070.61
2018-11-11T06:25:00.744Z,100070.27
2018-11-11T06:27:28.975Z,100074.25
2018-11-11T06:29:57.162Z,100076.89
2018-11-11T06:32:25.420Z,100082.19
2018-11-11T06:34:53.618Z,100082.69
2018-11-11T06:37:21.800Z,100090.97
2018-11-11T06:39:49.953Z,100089.64
2018-11-11T06:42:18.123Z,100086.50
2018-11-11T06:44:46.418Z,100090.81
2018-11-11T06:47:14.691Z,100098.92
2018-11-11T06:49:42.868Z,100098.08
2018-11-11T06:52:11.027Z,100105.05
2018-11-11T06:54:39.215Z,100108.52
2018-11-11T06:57:07.487Z,100113.98
2018-11-11T06:59:35.759Z,100112.01
2018-11-11T07:02:03.915Z,100115.64
2018-11-11T07:04:32.067Z,100116.13
2018-11-11T07:07:00.276Z,100129.22
2018-11-11T07:09:28.435Z,100126.27
2018-11-11T07:11:56.618Z,100129.23
2018-11-11T07:14:24.763Z,100141.83
2018-11-11T07:16:52.926Z,100142.17
2018-11-11T07:19:21.297Z,100146.15
2018-11-11T07:21:49.446Z,100157.77
2018-11-11T07:24:17.638Z,100161.40
2018-11-11T07:26:45.750Z,100156.44
2018-11-11T07:29:13.965Z,100177.33
2018-11-11T07:31:42.255Z,100169.38
2018-11-11T07:34:10.390Z,100179.68
2018-11-11T07:36:38.563Z,100176.05
2018-11-11T07:39:11.467Z,100176.05
2018-11-11T07:41:39.654Z,100185.32
2018-11-11T07:44:07.838Z,100188.95
2018-11-11T07:46:36.072Z,100196.57
2018-11-11T07:49:04.286Z,100203.72
2018-11-11T07:51:32.435Z,100201.56
2018-11-11T07:54:00.691Z,100207.85
2018-11-11T07:56:28.966Z,100209.17
2018-11-11T07:58:57.161Z,100209.02
2018-11-11T08:01:25.348Z,100216.48
2018-11-11T08:03:53.491Z,100209.70
2018-11-11T08:06:21.638Z,100205.09
2018-11-11T08:08:49.843Z,100209.41
2018-11-11T08:11:29.534Z,100211.41
2018-11-11T08:13:57.728Z,100210.92
2018-11-11T08:16:25.898Z,100212.09
2018-11-11T08:18:54.110Z,100205.63
2018-11-11T08:21:22.314Z,100205.31
2018-11-11T08:23:50.446Z,100208.95
2018-11-11T08:26:18.617Z,100212.29
2018-11-11T08:28:46.784Z,100200.02
2018-11-11T08:31:14.941Z,100198.55
2018-11-11T08:33:43.115Z,100197.06
2018-11-11T08:36:11.262Z,100202.06
2018-11-11T08:38:39.561Z,100203.92
2018-11-11T08:41:07.716Z,100204.08
2018-11-11T08:43:35.874Z,100217.36
2018-11-11T08:46:04.078Z,100225.02
2018-11-11T08:48:32.245Z,100228.34
2018-11-11T08:51:00.438Z,100233.34
2018-11-11T08:53:28.590Z,100247.44
2018-11-11T08:55:56.755Z,100245.66
2018-11-11T08:58:24.920Z,100248.98
2018-11-11T09:00:53.111Z,100245.66
2018-11-11T09:03:21.275Z,100248.61
2018-11-11T09:05:49.464Z,100250.42
2018-11-11T09:08:17.613Z,100253.91
2018-11-11T09:10:45.815Z,100258.88
2018-11-11T09:13:13.982Z,100260.20
2018-11-11T09:15:42.164Z,100263.53
2018-11-11T09:18:10.307Z,100272.52
2018-11-11T09:20:38.468Z,100265.92
2018-11-11T09:23:06.641Z,100264.29
2018-11-11T09:25:34.852Z,100258.06
2018-11-11T09:28:03.126Z,100261.77
2018-11-11T09:30:31.305Z,100257.16
2018-11-11T09:32:59.441Z,100258.89
2018-11-11T09:35:27.738Z,100263.91
2018-11-11T09:37:55.865Z,100261.91
2018-11-11T09:40:24.076Z,100255.60
2018-11-11T09:42:52.226Z,100256.93
2018-11-11T09:45:20.374Z,100264.55
2018-11-11T09:47:48.551Z,100265.73
2018-11-11T09:50:17.207Z,100274.84
2018-11-11T09:52:45.435Z,100270.67
2018-11-11T09:55:14.269Z,100284.09
2018-11-11T09:57:42.448Z,100277.13
2018-11-11T10:00:17.079Z,100278.11
2018-11-11T10:03:04.079Z,100272.59
2018-11-11T10:05:37.562Z,100272.13
2018-11-11T10:08:11.876Z,100268.14
2018-11-11T10:10:43.372Z,100261.70
2018-11-11T10:13:15.142Z,100266.69
2018-11-11T10:15:48.658Z,100272.83
2018-11-11T10:18:31.110Z,100276.81
2018-11-11T10:21:07.493Z,100282.80
2018-11-11T10:23:47.643Z,100285.45
2018-11-11T10:26:34.662Z,100291.59
2018-11-11T10:29:06.650Z,100291.78
2018-11-11T10:31:42.628Z,100296.75
2018-11-11T10:34:15.882Z,100302.89
2018-11-11T10:36:53.754Z,100294.45
2018-11-11T10:39:27.241Z,100303.28
2018-11-11T10:42:04.347Z,100298.16
2018-11-11T10:44:36.755Z,100295.34
2018-11-11T10:47:06.949Z,100307.49
2018-11-11T10:49:40.742Z,100315.79
2018-11-11T10:52:08.904Z,100317.30
2018-11-11T10:54:37.080Z,100312.50
2018-11-11T10:57:05.535Z,100320.16
2018-11-11T10:59:33.744Z,100328.80
2018-11-11T11:02:07.479Z,100336.27
2018-11-11T11:04:49.795Z,100333.12
2018-11-11T11:07:17.946Z,100336.63
2018-11-11T11:09:46.118Z,100333.81
2018-11-11T11:12:14.279Z,100345.45
2018-11-11T11:14:42.451Z,100344.12
2018-11-11T11:17:10.632Z,100337.98
2018-11-11T11:19:38.797Z,100340.14
2018-11-11T11:22:07.032Z,100338.48
2018-11-11T11:24:35.255Z,100357.08
2018-11-11T11:27:03.487Z,100357.39
2018-11-11T11:29:31.702Z,100368.33
2018-11-11T11:31:59.886Z,100368.48
2018-11-11T11:34:28.191Z,100366.14
2018-11-11T11:36:56.355Z,100357.69
2018-11-11T11:39:24.521Z,100356.84
2018-11-11T11:41:52.656Z,100359.34
2018-11-11T11:44:20.804Z,100351.72
2018-11-11T11:46:49.180Z,100349.89
2018-11-11T11:49:17.346Z,100351.22
2018-11-11T11:51:45.546Z,100352.55
2018-11-11T11:54:13.753Z,100351.72
2018-11-11T11:56:41.890Z,100346.75
2018-11-11T11:59:10.051Z,100327.12
2018-11-11T12:01:38.213Z,100325.80
2018-11-11T12:04:06.419Z,100329.29
2018-11-11T12:06:34.610Z,100325.98
2018-11-11T12:09:02.836Z,100331.30
2018-11-11T12:11:30.907Z,100334.45
2018-11-11T12:13:59.058Z,100333.12
2018-11-11T12:16:27.333Z,100338.77
2018-11-11T12:18:55.444Z,100345.08
2018-11-11T12:21:23.617Z,100354.69
2018-11-11T12:23:51.770Z,100359.81
2018-11-11T12:26:20.027Z,100362.29
2018-11-11T12:28:48.175Z,100362.94
2018-11-11T12:31:16.320Z,100373.22
2018-11-11T12:33:44.488Z,100363.59
2018-11-11T12:36:12.648Z,100365.26
2018-11-11T12:38:40.837Z,100363.93
2018-11-11T12:41:08.974Z,100360.94
2018-11-11T12:43:37.121Z,100360.29
2018-11-11T12:46:05.271Z,100365.08
2018-11-11T12:48:33.451Z,100360.94
2018-11-11T12:51:01.611Z,100362.27
2018-11-11T12:53:29.851Z,100358.44
2018-11-11T12:55:58.063Z,100368.07
2018-11-11T12:58:26.227Z,100364.73
2018-11-11T13:00:54.472Z,100371.04
2018-11-11T13:03:22.575Z,100373.84
2018-11-11T13:05:50.750Z,100369.87
2018-11-11T13:08:18.927Z,100364.06
2018-11-11T13:10:47.090Z,100373.20
2018-11-11T13:13:15.286Z,100378.17
2018-11-11T13:15:43.454Z,100374.69
2018-11-11T13:18:11.596Z,100377.00
2018-11-11T13:20:39.752Z,100376.16
2018-11-11T13:23:08.007Z,100381.62
2018-11-11T13:25:36.176Z,100380.30
2018-11-11T13:28:04.684Z,100380.30
2018-11-11T13:30:33.064Z,100387.92
2018-11-11T13:33:01.201Z,100384.09
2018-11-11T13:35:29.346Z,100383.61
2018-11-11T13:37:57.594Z,100385.09
2018-11-11T13:40:26.184Z,100387.41
2018-11-11T13:42:54.344Z,100394.72
2018-11-11T13:45:23.178Z,100408.14
2018-11-11T13:47:51.755Z,100414.59
2018-11-11T13:50:21.379Z,100427.19
2018-11-11T13:52:50.093Z,100439.78
2018-11-11T13:55:18.836Z,100437.42
2018-11-11T13:57:47.897Z,100445.65
2018-11-11T14:00:20.955Z,100440.91
2018-11-11T14:02:49.108Z,100435.11
2018-11-11T14:05:17.267Z,100434.57
2018-11-11T14:07:45.596Z,100424.26
2018-11-11T14:10:14.454Z,100424.22
2018-11-11T14:12:43.274Z,100426.19
2018-11-11T14:15:15.707Z,100433.15
2018-11-11T14:17:44.603Z,100433.79
2018-11-11T14:20:17.106Z,100429.96
2018-11-11T14:22:46.364Z,100419.98
2018-11-11T14:25:17.235Z,100420.14
2018-11-11T14:27:45.635Z,100418.96
2018-11-11T14:30:17.646Z,100423.77
2018-11-11T14:32:46.620Z,100425.74
2018-11-11T14:35:14.706Z,100425.06
2018-11-11T14:37:45.956Z,100415.12
2018-11-11T14:40:16.163Z,100419.09
2018-11-11T14:42:44.388Z,100420.42
2018-11-11T14:45:13.634Z,100431.67
2018-11-11T14:47:42.622Z,100441.94
2018-11-11T14:50:12.119Z,100440.56
2018-11-11T14:52:40.577Z,100439.24
2018-11-11T14:55:15.155Z,100435.91
2018-11-11T14:57:43.480Z,100441.20
2018-11-11T15:00:14.051Z,100437.23
2018-11-11T15:02:42.240Z,100438.06
2018-11-11T15:05:12.446Z,100436.59
2018-11-11T15:07:41.381Z,100422.98
2018-11-11T15:10:10.943Z,100422.98
2018-11-11T15:12:39.110Z,100431.78
2018-11-11T15:15:10.596Z,100439.24
2018-11-11T15:17:38.786Z,100436.94
2018-11-11T15:20:08.166Z,100435.61
2018-11-11T15:22:36.251Z,100437.92
2018-11-11T15:25:04.707Z,100440.56
2018-11-11T15:27:32.834Z,100436.59
2018-11-11T15:30:01.047Z,100437.42
2018-11-11T15:32:29.218Z,100443.56
2018-11-11T15:34:57.469Z,100445.88
2018-11-11T15:37:25.885Z,100439.93
2018-11-11T15:39:54.035Z,100442.23
2018-11-11T15:42:22.278Z,100449.21
2018-11-11T15:44:50.367Z,100453.19
2018-11-11T15:47:18.527Z,100461.48
2018-11-11T15:49:46.667Z,100464.29
2018-11-11T15:52:14.922Z,100457.17
2018-11-11T15:54:43.043Z,100467.77
2018-11-11T15:57:11.231Z,100457.66
2018-11-11T15:59:39.385Z,100460.16
2018-11-11T16:02:07.552Z,100463.66
2018-11-11T16:04:35.718Z,100467.28
2018-11-11T16:07:04.087Z,100469.10
2018-11-11T16:09:32.371Z,100461.98
2018-11-11T16:12:00.528Z,100474.89
2018-11-11T16:14:28.695Z,100471.41
2018-11-11T16:16:56.883Z,100472.73
2018-11-11T16:19:25.029Z,100479.37
2018-11-11T16:21:53.244Z,100478.88
2018-11-11T16:24:21.394Z,100479.22
2018-11-11T16:26:49.549Z,100478.92
2018-11-11T16:29:17.940Z,100484.37
2018-11-11T16:31:46.134Z,100479.07
2018-11-11T16:34:14.283Z,100481.23
2018-11-11T16:36:42.432Z,100480.74
2018-11-11T16:39:12.523Z,100468.12
2018-11-11T16:41:40.830Z,100471.11
2018-11-11T16:44:09.024Z,100468.66
2018-11-11T16:46:37.180Z,100462.52
2018-11-11T16:49:06.880Z,100466.84
2018-11-11T16:51:35.407Z,100462.86
2018-11-11T16:54:03.622Z,100474.45
2018-11-11T16:56:31.666Z,100471.11
2018-11-11T16:58:59.835Z,100480.89
2018-11-11T17:01:28.114Z,100477.25
2018-11-11T17:03:56.283Z,100492.53
2018-11-11T17:06:24.448Z,100500.63
2018-11-11T17:08:52.595Z,100487.72
2018-11-11T17:11:20.819Z,100480.45
2018-11-11T17:13:49.083Z,100490.56
2018-11-11T17:16:17.247Z,100494.55
2018-11-11T17:18:45.394Z,100479.95
2018-11-11T17:21:13.655Z,100483.59
2018-11-11T17:23:41.761Z,100488.41
2018-11-11T17:26:09.963Z,100489.73
2018-11-11T17:28:38.129Z,100486.39
2018-11-11T17:31:06.299Z,100482.41
2018-11-11T17:33:34.447Z,100479.41
2018-11-11T17:36:02.697Z,100480.25
2018-11-11T17:38:30.847Z,100490.37
2018-11-11T17:40:59.000Z,100493.66
2018-11-11T17:43:27.150Z,100510.26
2018-11-11T17:45:55.315Z,100516.89
2018-11-11T17:48:23.518Z,100513.25
2018-11-11T17:50:51.694Z,100518.07
2018-11-11T17:53:19.895Z,100518.91
2018-11-11T17:55:48.185Z,100508.30
2018-11-11T17:58:16.881Z,100521.87
2018-11-11T18:00:45.060Z,100506.14
2018-11-11T18:03:13.303Z,100518.70
2018-11-11T18:05:41.404Z,100515.86
2018-11-11T18:08:09.678Z,100520.67
2018-11-11T18:10:37.889Z,100538.70
2018-11-11T18:13:06.444Z,100534.37
2018-11-11T18:15:34.589Z,100534.17
2018-11-11T18:18:02.735Z,100536.19
2018-11-11T18:20:32.219Z,100531.03
2018-11-11T18:23:01.068Z,100518.11
2018-11-11T18:25:30.115Z,100512.61
2018-11-11T18:27:58.394Z,100506.47
2018-11-11T18:30:30.843Z,100516.42
2018-11-11T18:32:58.994Z,100513.42
2018-11-11T18:35:27.179Z,100521.87
2018-11-11T18:37:55.399Z,100522.02
2018-11-11T18:40:25.043Z,100515.39
2018-11-11T18:42:53.209Z,100530.11
2018-11-11T18:45:22.745Z,100538.41
2018-11-11T18:47:51.583Z,100550.34
2018-11-11T18:50:22.195Z,100563.26
2018-11-11T18:52:50.366Z,100572.34
2018-11-11T18:55:18.527Z,100594.39
2018-11-11T18:57:47.025Z,100602.48
2018-11-11T19:00:17.372Z,100594.04
2018-11-11T19:02:46.486Z,100590.06
2018-11-11T19:05:15.595Z,100592.02
2018-11-11T19:07:44.019Z,100608.91
2018-11-11T19:10:13.865Z,100618.82
2018-11-11T19:12:43.052Z,100629.25
2018-11-11T19:15:12.371Z,100636.16
2018-11-11T19:17:41.374Z,100634.14
2018-11-11T19:20:11.592Z,100627.17
2018-11-11T19:22:39.789Z,100625.00
2018-11-11T19:25:10.142Z,100624.80
2018-11-11T19:27:38.587Z,100636.38
2018-11-11T19:30:07.809Z,100630.38
2018-11-11T19:32:36.101Z,100647.13
2018-11-11T19:35:04.547Z,100652.22
2018-11-11T19:37:32.871Z,100660.69
2018-11-11T19:40:01.067Z,100655.53
2018-11-11T19:42:29.383Z,100663.48
2018-11-11T19:44:57.551Z,100656.64
2018-11-11T19:47:25.705Z,100660.41
2018-11-11T19:49:53.892Z,100662.72
2018-11-11T19:52:22.098Z,100664.39
2018-11-11T19:54:50.275Z,100668.99
2018-11-11T19:57:18.430Z,100667.67
2018-11-11T19:59:46.596Z,100653.23
2018-11-11T20:02:14.791Z,100658.53
2018-11-11T20:04:42.947Z,100659.51
2018-11-11T20:07:11.111Z,100660.97
2018-11-11T20:09:39.424Z,100653.65
2018-11-11T20:12:07.578Z,100674.84
2018-11-11T20:14:35.794Z,100671.88
2018-11-11T20:17:04.036Z,100667.56
2018-11-11T20:19:32.198Z,100674.81
2018-11-11T20:22:00.383Z,100688.20
2018-11-11T20:24:28.707Z,100691.69
2018-11-11T20:26:56.774Z,100701.93
2018-11-11T20:29:25.048Z,100719.16
2018-11-11T20:31:53.253Z,100709.88
2018-11-11T20:34:21.388Z,100685.06
2018-11-11T20:36:49.556Z,100706.75
2018-11-11T20:39:17.709Z,100701.80
2018-11-11T20:41:45.912Z,100707.93
2018-11-11T20:44:14.047Z,100713.23
2018-11-11T20:46:42.276Z,100733.45
2018-11-11T20:49:10.415Z,100733.45
2018-11-11T20:51:38.582Z,100747.19
2018-11-11T20:54:06.796Z,100757.79
2018-11-11T20:56:35.000Z,100751.66
2018-11-11T20:59:03.127Z,100755.28
2018-11-11T21:01:31.291Z,100754.79
2018-11-11T21:03:59.467Z,100758.41
2018-11-11T21:06:28.021Z,100747.95
2018-11-11T21:08:56.157Z,100748.30
2018-11-11T21:11:25.397Z,100746.63
2018-11-11T21:13:53.531Z,100763.50
2018-11-11T21:16:21.755Z,100764.96
2018-11-11T21:18:50.019Z,100768.72
2018-11-11T21:21:18.208Z,100763.20
2018-11-11T21:23:46.316Z,100759.23
2018-11-11T21:26:14.466Z,100753.09
2018-11-11T21:28:42.666Z,100761.56
2018-11-11T21:31:13.267Z,100757.23
2018-11-11T21:33:41.479Z,100754.72
2018-11-11T21:36:09.620Z,100749.08
2018-11-11T21:38:37.767Z,100767.62
2018-11-11T21:41:06.307Z,100766.91
2018-11-11T21:43:34.460Z,100764.75
2018-11-11T21:46:02.627Z,100759.94
2018-11-11T21:48:30.800Z,100773.54
2018-11-11T21:50:59.058Z,100764.75
2018-11-11T21:53:33.103Z,100781.00
2018-11-11T21:56:01.804Z,100782.45
2018-11-11T21:58:30.129Z,100796.67
2018-11-11T22:00:58.288Z,100800.16
2018-11-11T22:03:26.729Z,100798.35
2018-11-11T22:05:55.397Z,100796.05
2018-11-11T22:08:23.906Z,100817.73
2018-11-11T22:10:52.381Z,100810.98
2018-11-11T22:13:21.166Z,100801.35
2018-11-11T22:15:49.374Z,100805.19
2018-11-11T22:18:17.835Z,100818.30
2018-11-11T22:20:46.015Z,100806.38
2018-11-11T22:23:14.228Z,100805.41
2018-11-11T22:25:42.394Z,100817.33
2018-11-11T22:28:10.645Z,100833.90
2018-11-11T22:30:38.742Z,100832.88
2018-11-11T22:33:06.890Z,100828.90
2018-11-11T22:35:35.422Z,100832.88
2018-11-11T22:38:03.660Z,100839.36
2018-11-11T22:40:32.000Z,100845.98
2018-11-11T22:43:00.284Z,100835.88
2018-11-11T22:45:28.466Z,100844.17
2018-11-11T22:47:56.648Z,100847.15
2018-11-11T22:50:24.970Z,100837.88
2018-11-11T22:52:53.137Z,100839.20
2018-11-11T22:55:21.439Z,100839.20
2018-11-11T22:57:49.607Z,100850.14
2018-11-11T23:00:23.007Z,100846.53
2018-11-11T23:02:51.687Z,100846.17
2018-11-11T23:05:20.928Z,100850.63
2018-11-11T23:07:49.062Z,100843.52
2018-11-11T23:10:17.267Z,100848.47
2018-11-11T23:12:45.507Z,100848.47
2018-11-11T23:15:14.903Z,100845.50
2018-11-11T23:17:43.100Z,100850.63
2018-11-11T23:20:13.090Z,100859.06
2018-11-11T23:22:41.674Z,100842.50
2018-11-11T23:25:11.605Z,100843.83
2018-11-11T23:27:39.803Z,100835.03
2018-11-11T23:30:10.301Z,100837.69
2018-11-11T23:32:38.490Z,100850.09
2018-11-11T23:35:07.155Z,100859.02
2018-11-11T23:37:35.430Z,100855.04
2018-11-11T23:40:03.701Z,100862.15
2018-11-11T23:42:31.847Z,100860.83
2018-11-11T23:44:59.983Z,100877.08
2018-11-11T23:47:28.162Z,100870.58
2018-11-11T23:49:56.295Z,100866.26
2018-11-11T23:52:24.483Z,100863.61
2018-11-11T23:54:52.648Z,100854.34
2018-11-11T23:57:20.852Z,100847.71
2018-11-11T23:59:48.986Z,100852.04
